DLH22 EDDF-LTFM
Flight info
| Callsign | DLH22 |
|---|---|
| Flight time | N/A |
| Altitude | 31000 |
| Route | CINDY8S/18 CINDY Z74 HAREM DCT ASLEP DCT TAKUT DCT DINKU L603 BESNI/N0491F410 L605 MIQ/N0492F350 DCT ALUTU DCT BIBAG L605 ESEGA DCT VELOM/N0487F410 DCT GOTAR DCT BABIT DCT ESIRI DCT ETIDA T390 RILEX |
| Aircraft | B789/H-SDE1E2E3FGHIJ2J3J4J5M1RWXY/LB1D1 |
Departure
| Time | 2026-05-06 20:20 |
|---|---|
| Airport | Frankfurt Main Airport (EDDF) |
Arrival
| Time | N/A |
|---|---|
| Airport | İstanbul Airport (LTFM) |
| Time | Latitude | Longitude | Altitude | Speed | Heading |
|---|---|---|---|---|---|
| 2026-05-06 19:50 | 50.04730 | 8.56273 | 366 ft | 0 kts | 340° |
| 2026-05-06 20:09 | 50.04721 | 8.56278 | 367 ft | 3 kts | 340° |
| 2026-05-06 20:09 | 50.04702 | 8.56289 | 362 ft | 4 kts | 340° |
| 2026-05-06 20:09 | 50.04683 | 8.56300 | 366 ft | 4 kts | 334° |
| 2026-05-06 20:09 | 50.04666 | 8.56316 | 368 ft | 4 kts | 316° |
| 2026-05-06 20:10 | 50.04654 | 8.56340 | 364 ft | 4 kts | 288° |
| 2026-05-06 20:10 | 50.04651 | 8.56368 | 363 ft | 4 kts | 254° |
| 2026-05-06 20:10 | 50.04653 | 8.56376 | 363 ft | 6 kts | 249° |
| 2026-05-06 20:13 | 50.04652 | 8.56373 | 363 ft | 1 kts | 249° |
| 2026-05-06 20:13 | 50.04646 | 8.56350 | 362 ft | 4 kts | 249° |
| 2026-05-06 20:13 | 50.04632 | 8.56290 | 366 ft | 10 kts | 249° |
| 2026-05-06 20:14 | 50.04604 | 8.56169 | 364 ft | 12 kts | 249° |
| 2026-05-06 20:14 | 50.04574 | 8.56045 | 365 ft | 12 kts | 249° |
| 2026-05-06 20:14 | 50.04519 | 8.55958 | 368 ft | 11 kts | 205° |
| 2026-05-06 20:14 | 50.04445 | 8.55921 | 369 ft | 11 kts | 195° |
| 2026-05-06 20:15 | 50.04368 | 8.55919 | 365 ft | 12 kts | 166° |
| 2026-05-06 20:15 | 50.04284 | 8.55956 | 361 ft | 12 kts | 179° |
| 2026-05-06 20:15 | 50.04228 | 8.55877 | 365 ft | 12 kts | 245° |
| 2026-05-06 20:15 | 50.04196 | 8.55755 | 364 ft | 13 kts | 249° |
| 2026-05-06 20:16 | 50.04158 | 8.55601 | 364 ft | 19 kts | 250° |
| 2026-05-06 20:16 | 50.04115 | 8.55416 | 362 ft | 18 kts | 250° |
| 2026-05-06 20:16 | 50.04072 | 8.55239 | 363 ft | 17 kts | 249° |
| 2026-05-06 20:16 | 50.04032 | 8.55071 | 363 ft | 17 kts | 250° |
| 2026-05-06 20:17 | 50.03992 | 8.54902 | 360 ft | 17 kts | 250° |
| 2026-05-06 20:17 | 50.03944 | 8.54702 | 360 ft | 24 kts | 250° |
| 2026-05-06 20:17 | 50.03874 | 8.54414 | 359 ft | 33 kts | 245° |
| 2026-05-06 20:17 | 50.03769 | 8.54096 | 355 ft | 32 kts | 250° |
| 2026-05-06 20:18 | 50.03694 | 8.53773 | 352 ft | 31 kts | 249° |
| 2026-05-06 20:18 | 50.03616 | 8.53465 | 350 ft | 30 kts | 249° |
| 2026-05-06 20:18 | 50.03544 | 8.53165 | 352 ft | 29 kts | 249° |
| 2026-05-06 20:18 | 50.03473 | 8.52879 | 349 ft | 27 kts | 247° |
| 2026-05-06 20:19 | 50.03400 | 8.52639 | 335 ft | 19 kts | 227° |
| 2026-05-06 20:19 | 50.03297 | 8.52595 | 336 ft | 0 kts | 180° |
| 2026-05-06 20:19 | 50.03292 | 8.52595 | 336 ft | 6 kts | 180° |
| 2026-05-06 20:19 | 50.03046 | 8.52597 | 341 ft | 75 kts | 180° |
| 2026-05-06 20:20 | 50.02259 | 8.52607 | 340 ft | 149 kts | 180° |
| 2026-05-06 20:20 | 50.01057 | 8.52632 | 633 ft | 181 kts | 174° |
| 2026-05-06 20:20 | 49.99834 | 8.52696 | 1479 ft | 177 kts | 181° |
| 2026-05-06 20:20 | 49.98605 | 8.52739 | 2321 ft | 177 kts | 181° |
| 2026-05-06 20:21 | 49.97390 | 8.52855 | 3149 ft | 171 kts | 178° |
| 2026-05-06 20:21 | 49.96268 | 8.53167 | 3914 ft | 163 kts | 155° |
| 2026-05-06 20:21 | 49.95536 | 8.54431 | 4486 ft | 165 kts | 125° |
| 2026-05-06 20:21 | 49.94854 | 8.56176 | 4467 ft | 211 kts | 114° |
| 2026-05-06 20:22 | 49.94470 | 8.58573 | 4849 ft | 241 kts | 108° |
| 2026-05-06 20:22 | 49.94062 | 8.61138 | 5697 ft | 250 kts | 99° |
| 2026-05-06 20:22 | 49.93891 | 8.63954 | 6295 ft | 274 kts | 95° |
| 2026-05-06 20:22 | 49.93788 | 8.66992 | 7030 ft | 285 kts | 99° |
| 2026-05-06 20:23 | 49.93053 | 8.69800 | 8023 ft | 282 kts | 128° |
| 2026-05-06 20:23 | 49.91622 | 8.71841 | 8941 ft | 281 kts | 151° |
| 2026-05-06 20:23 | 49.89994 | 8.73595 | 9859 ft | 288 kts | 146° |
| 2026-05-06 20:23 | 49.88422 | 8.75662 | 10411 ft | 310 kts | 131° |
| 2026-05-06 20:24 | 49.87840 | 8.77066 | 10573 ft | 324 kts | 119° |
| 2026-05-06 20:24 | 49.86933 | 8.79726 | 10765 ft | 348 kts | 121° |
| 2026-05-06 20:24 | 49.86757 | 8.80220 | 10790 ft | 352 kts | 121° |
| 2026-05-06 20:24 | 49.85511 | 8.83621 | 11071 ft | 375 kts | 121° |
| 2026-05-06 20:25 | 49.84231 | 8.87097 | 12114 ft | 374 kts | 121° |
| 2026-05-06 20:25 | 49.82934 | 8.90685 | 13012 ft | 379 kts | 120° |
| 2026-05-06 20:25 | 49.81657 | 8.94227 | 13886 ft | 382 kts | 120° |
| 2026-05-06 20:25 | 49.80347 | 8.97828 | 14662 ft | 386 kts | 120° |
| 2026-05-06 20:26 | 49.79017 | 9.01464 | 15437 ft | 390 kts | 120° |
| 2026-05-06 20:26 | 49.78257 | 9.03545 | 15870 ft | 393 kts | 120° |
| 2026-05-06 20:26 | 49.76907 | 9.07254 | 16617 ft | 396 kts | 120° |
| 2026-05-06 20:26 | 49.75870 | 9.11208 | 17422 ft | 401 kts | 105° |
| 2026-05-06 20:27 | 49.75193 | 9.15421 | 18103 ft | 405 kts | 107° |
| 2026-05-06 20:27 | 49.74091 | 9.19406 | 18733 ft | 405 kts | 123° |
| 2026-05-06 20:27 | 49.72369 | 9.22861 | 19364 ft | 406 kts | 132° |
| 2026-05-06 20:27 | 49.70511 | 9.26176 | 19974 ft | 410 kts | 132° |
| 2026-05-06 20:28 | 49.68622 | 9.29493 | 20597 ft | 412 kts | 133° |
| 2026-05-06 20:28 | 49.66746 | 9.32795 | 21174 ft | 416 kts | 132° |
| 2026-05-06 20:28 | 49.64815 | 9.36215 | 21760 ft | 419 kts | 132° |
| 2026-05-06 20:28 | 49.62942 | 9.39605 | 22282 ft | 422 kts | 128° |
| 2026-05-06 20:29 | 49.61464 | 9.43545 | 22811 ft | 428 kts | 115° |
| 2026-05-06 20:29 | 49.60465 | 9.47886 | 23297 ft | 432 kts | 110° |
| 2026-05-06 20:29 | 49.59515 | 9.52285 | 23816 ft | 433 kts | 110° |
| 2026-05-06 20:29 | 49.58571 | 9.56708 | 24244 ft | 435 kts | 110° |
| 2026-05-06 20:30 | 49.57619 | 9.61146 | 24666 ft | 437 kts | 111° |
| 2026-05-06 20:30 | 49.55685 | 9.70057 | 25589 ft | 439 kts | 111° |
| 2026-05-06 20:30 | 49.54712 | 9.74549 | 25964 ft | 442 kts | 111° |
| 2026-05-06 20:31 | 49.53749 | 9.78976 | 26368 ft | 444 kts | 111° |
| 2026-05-06 20:31 | 49.52501 | 9.83303 | 26820 ft | 440 kts | 122° |
| 2026-05-06 20:31 | 49.50773 | 9.87160 | 27426 ft | 435 kts | 131° |
| 2026-05-06 20:31 | 49.48876 | 9.90790 | 27963 ft | 433 kts | 132° |
| 2026-05-06 20:32 | 49.46985 | 9.94376 | 28595 ft | 430 kts | 133° |
| 2026-05-06 20:32 | 49.45094 | 9.97941 | 29142 ft | 430 kts | 133° |
| 2026-05-06 20:32 | 49.43205 | 10.01513 | 29689 ft | 429 kts | 133° |
| 2026-05-06 20:32 | 49.41354 | 10.05018 | 30196 ft | 428 kts | 133° |
| 2026-05-06 20:33 | 49.39479 | 10.08558 | 30641 ft | 428 kts | 133° |
| 2026-05-06 20:33 | 49.37587 | 10.12118 | 30850 ft | 433 kts | 133° |
| 2026-05-06 20:33 | 49.35666 | 10.15728 | 30844 ft | 436 kts | 133° |
| 2026-05-06 20:34 | 49.33141 | 10.20483 | 30789 ft | 431 kts | 134° |
| 2026-05-06 20:34 | 49.31253 | 10.24019 | 30949 ft | 429 kts | 133° |
| 2026-05-06 20:34 | 49.29411 | 10.27481 | 30822 ft | 418 kts | 135° |
| 2026-05-06 20:35 | 49.25712 | 10.34371 | 30855 ft | 428 kts | 135° |
| 2026-05-06 20:35 | 49.21666 | 10.41179 | 30858 ft | 433 kts | 141° |
| 2026-05-06 20:36 | 49.17348 | 10.47645 | 30860 ft | 434 kts | 141° |
| 2026-05-06 20:36 | 49.14933 | 10.51227 | 30870 ft | 434 kts | 141° |
| 2026-05-06 20:37 | 49.10600 | 10.57644 | 30873 ft | 433 kts | 141° |
| 2026-05-06 20:37 | 49.06308 | 10.64002 | 30840 ft | 432 kts | 141° |
| 2026-05-06 20:38 | 49.01943 | 10.70433 | 30879 ft | 438 kts | 141° |
| 2026-05-06 20:38 | 48.97566 | 10.76866 | 30879 ft | 437 kts | 141° |
| 2026-05-06 20:39 | 48.93186 | 10.83283 | 30879 ft | 436 kts | 141° |
| 2026-05-06 20:39 | 48.88842 | 10.89643 | 30882 ft | 436 kts | 141° |
| 2026-05-06 20:40 | 48.84475 | 10.96033 | 30881 ft | 436 kts | 141° |
| 2026-05-06 20:40 | 48.80135 | 11.02368 | 30834 ft | 420 kts | 141° |
| 2026-05-06 20:41 | 48.79430 | 11.03406 | 30751 ft | 416 kts | 141° |